Time;durP1;ratioP1;P1;durP2;ratioP2;P2;SDS_P1;SDS_P2;PMS_P1;PMS_P2;Temp;Humidity;BMP_temperature;BMP_pressure;BME280_temperature;BME280_humidity;BME280_pressure;Samples;Min_cycle;Max_cycle;Signal;HPM_P1;HPM_P2
2024/04/02 00:01:08;;;;;;;1.70;0.45;;;;;;;8.01;70.03;97632.53;5004726;27;105977;-75
2024/04/02 00:03:34;;;;;;;1.35;0.60;;;;;;;8.04;70.09;97632.97;5029262;27;103181;-76
2024/04/02 00:05:59;;;;;;;1.10;0.43;;;;;;;8.09;69.97;97650.94;4996410;27;103693;-77
2024/04/02 00:08:27;;;;;;;1.17;0.40;;;;;;;7.98;70.71;97644.25;5013478;27;102876;-74
2024/04/02 00:11:08;;;;;;;0.50;0.40;;;;;;;7.93;70.38;97652.69;5029322;27;103635;-74
2024/04/02 00:13:34;;;;;;;3.63;0.50;;;;;;;7.93;70.18;97660.59;5021552;27;103754;-74
2024/04/02 00:16:01;;;;;;;0.95;0.43;;;;;;;7.90;70.66;97673.31;5023709;27;102969;-71
2024/04/02 00:18:27;;;;;;;2.63;0.40;;;;;;;7.93;70.32;97667.69;5025494;27;102649;-77
2024/04/02 00:20:58;;;;;;;2.70;0.50;;;;;;;7.89;70.87;97671.69;5023237;27;103408;-75
2024/04/02 00:23:24;;;;;;;1.77;0.40;;;;;;;7.97;70.86;97676.91;5022765;27;102981;-72
2024/04/02 00:26:01;;;;;;;1.60;0.43;;;;;;;8.00;70.16;97681.81;5006732;27;103088;-74
2024/04/02 00:28:27;;;;;;;1.73;0.45;;;;;;;7.94;70.31;97674.63;4991185;27;103822;-76
2024/04/02 00:30:58;;;;;;;0.50;0.40;;;;;;;7.97;70.55;97674.25;4991943;27;103216;-75
2024/04/02 00:33:26;;;;;;;2.50;0.60;;;;;;;8.01;70.56;97672.91;5001606;27;103671;-76
2024/04/02 00:36:05;;;;;;;0.68;0.43;;;;;;;8.00;70.83;97676.53;5031407;27;103759;-77
2024/04/02 00:38:31;;;;;;;2.30;0.65;;;;;;;7.96;70.82;97683.16;5006317;27;102757;-73
2024/04/02 00:40:57;;;;;;;0.95;0.50;;;;;;;7.92;70.71;97689.78;5024329;27;103166;-75
2024/04/02 00:43:24;;;;;;;0.70;0.50;;;;;;;7.96;70.80;97694.53;5011133;27;103985;-76
2024/04/02 00:45:50;;;;;;;0.77;0.40;;;;;;;7.92;70.88;97695.06;5023845;27;102998;-76
2024/04/02 00:48:17;;;;;;;1.20;0.50;;;;;;;7.93;71.03;97704.63;5028829;27;103669;-75
2024/04/02 00:50:43;;;;;;;1.75;0.65;;;;;;;7.95;70.77;97707.88;5026399;27;103805;-74
2024/04/02 00:53:12;;;;;;;0.75;0.40;;;;;;;7.76;71.16;97699.44;5027397;27;103108;-71
2024/04/02 00:55:38;;;;;;;1.05;0.30;;;;;;;7.85;70.82;97708.13;5024543;27;103019;-76
2024/04/02 00:58:07;;;;;;;1.58;0.63;;;;;;;7.82;71.37;97707.66;5017197;27;103053;-76
2024/04/02 01:00:37;;;;;;;2.72;0.40;;;;;;;7.74;71.81;97717.25;5011112;27;103152;-77
2024/04/02 01:03:07;;;;;;;0.40;0.40;;;;;;;7.84;71.05;97721.47;5025415;27;102658;-75
2024/04/02 01:05:34;;;;;;;2.17;0.55;;;;;;;7.85;71.29;97725.75;5020944;27;104129;-73
2024/04/02 01:08:02;;;;;;;1.65;0.50;;;;;;;7.80;71.44;97716.53;5025718;27;103644;-74
2024/04/02 01:10:30;;;;;;;0.52;0.50;;;;;;;7.84;70.72;97721.47;5008775;27;104120;-76
2024/04/02 01:12:56;;;;;;;2.72;0.60;;;;;;;7.73;71.04;97736.69;5010174;27;103433;-71
2024/04/02 01:15:22;;;;;;;2.63;0.55;;;;;;;7.71;71.36;97722.06;5010259;27;104228;-74
2024/04/02 01:17:51;;;;;;;0.95;0.40;;;;;;;7.63;71.84;97726.34;5026632;27;103416;-74
2024/04/02 01:20:19;;;;;;;0.50;0.50;;;;;;;7.44;72.97;97737.31;5023341;27;103204;-73
2024/04/02 01:22:44;;;;;;;1.13;0.60;;;;;;;7.50;71.94;97730.56;5023816;27;104738;-75
2024/04/02 01:25:10;;;;;;;0.80;0.40;;;;;;;7.37;72.52;97742.47;5022222;27;102692;-76
2024/04/02 01:27:36;;;;;;;3.13;0.82;;;;;;;7.29;72.73;97745.13;5016589;27;102775;-70
2024/04/02 01:30:03;;;;;;;0.50;0.43;;;;;;;7.42;72.57;97739.31;5019281;27;104040;-75
2024/04/02 01:32:29;;;;;;;0.73;0.50;;;;;;;7.43;71.85;97749.69;5017688;27;103856;-75
2024/04/02 01:34:57;;;;;;;0.65;0.55;;;;;;;7.46;72.13;97741.44;5026965;27;104567;-76
2024/04/02 01:37:23;;;;;;;2.05;0.45;;;;;;;7.51;71.63;97740.13;5012140;27;103723;-72
2024/04/02 01:39:48;;;;;;;1.10;0.50;;;;;;;7.46;72.06;97736.16;5006609;27;103472;-75
2024/04/02 01:42:14;;;;;;;0.70;0.40;;;;;;;7.45;71.60;97733.69;5026395;27;103102;-74
2024/04/02 01:44:42;;;;;;;0.73;0.30;;;;;;;7.44;71.79;97739.97;5018395;27;102985;-73
2024/04/02 01:47:08;;;;;;;1.88;0.57;;;;;;;7.38;71.46;97738.84;5024324;27;102726;-73
2024/04/02 01:49:34;;;;;;;1.88;0.50;;;;;;;7.42;71.63;97745.41;5006132;27;103322;-74
2024/04/02 01:51:59;;;;;;;1.25;0.40;;;;;;;7.42;71.56;97749.88;5023589;27;104832;-76
2024/04/02 01:54:26;;;;;;;3.67;0.52;;;;;;;7.44;70.88;97747.88;5005136;27;102762;-74
2024/04/02 01:56:54;;;;;;;7.97;0.77;;;;;;;7.30;71.98;97749.41;5015798;27;102675;-77
2024/04/02 01:59:19;;;;;;;0.63;0.52;;;;;;;7.33;71.89;97756.97;5022442;27;104095;-76
2024/04/02 02:01:48;;;;;;;0.70;0.50;;;;;;;7.37;72.07;97763.53;5023723;27;103121;-72
2024/04/02 02:04:16;;;;;;;0.57;0.50;;;;;;;7.39;71.59;97766.84;5027187;27;103658;-75
2024/04/02 02:06:42;;;;;;;1.42;0.60;;;;;;;7.36;71.49;97767.16;5021727;27;103072;-74
2024/04/02 02:09:08;;;;;;;1.33;0.50;;;;;;;7.41;71.60;97770.09;5006246;27;103727;-73
2024/04/02 02:11:34;;;;;;;2.38;0.75;;;;;;;7.17;72.20;97784.19;5014079;27;105676;-75
2024/04/02 02:14:04;;;;;;;1.23;0.60;;;;;;;7.20;72.12;97783.84;5027017;27;103243;-75
2024/04/02 02:16:32;;;;;;;2.38;0.60;;;;;;;7.31;72.49;97785.31;5023651;27;102829;-75
2024/04/02 02:18:58;;;;;;;2.00;0.50;;;;;;;7.18;72.21;97791.09;5009866;27;105381;-75
2024/04/02 02:21:26;;;;;;;1.40;0.55;;;;;;;7.30;72.00;97779.19;5022689;27;103749;-75
2024/04/02 02:23:52;;;;;;;2.30;0.47;;;;;;;7.33;71.83;97788.59;5025443;27;102713;-74
2024/04/02 02:26:20;;;;;;;2.15;0.57;;;;;;;7.45;71.49;97789.03;5031638;27;103614;-74
2024/04/02 02:28:48;;;;;;;2.10;0.60;;;;;;;7.39;71.00;97790.53;5005894;27;104061;-76
2024/04/02 02:31:16;;;;;;;1.77;1.08;;;;;;;7.44;70.86;97788.22;5009311;27;103628;-76
2024/04/02 02:33:45;;;;;;;0.52;0.40;;;;;;;7.46;71.05;97783.59;5011721;27;103933;-75
2024/04/02 02:36:11;;;;;;;0.70;0.40;;;;;;;7.53;70.68;97796.09;5005198;27;103153;-76
2024/04/02 02:38:37;;;;;;;0.47;0.32;;;;;;;7.44;71.17;97796.13;4989744;27;106240;-74
2024/04/02 02:41:03;;;;;;;0.57;0.38;;;;;;;7.39;70.94;97803.72;5007403;27;103198;-72
2024/04/02 02:43:28;;;;;;;0.80;0.52;;;;;;;7.49;70.63;97813.22;5006452;27;102672;-73
2024/04/02 02:45:55;;;;;;;2.83;0.50;;;;;;;7.36;71.16;97813.75;5012761;27;103314;-72
2024/04/02 02:48:21;;;;;;;3.60;0.70;;;;;;;7.32;71.44;97817.72;4989104;27;103344;-74
2024/04/02 02:50:47;;;;;;;0.77;0.57;;;;;;;7.18;71.92;97806.06;5006844;27;102945;-76
2024/04/02 02:53:13;;;;;;;1.50;0.50;;;;;;;7.21;72.16;97811.00;5010424;27;103224;-71
2024/04/02 02:55:39;;;;;;;0.50;0.50;;;;;;;7.17;71.97;97815.78;5009477;27;103734;-76
2024/04/02 02:58:05;;;;;;;2.67;0.70;;;;;;;7.22;71.76;97813.47;5009910;27;103168;-75
2024/04/02 03:00:30;;;;;;;0.65;0.40;;;;;;;7.28;71.82;97817.25;4993704;27;105390;-75
2024/04/02 03:02:59;;;;;;;0.55;0.50;;;;;;;7.28;71.71;97811.97;4991076;27;102529;-73
2024/04/02 03:05:24;;;;;;;2.47;0.50;;;;;;;7.33;71.17;97820.19;5012802;27;103261;-74
2024/04/02 03:07:52;;;;;;;2.67;0.80;;;;;;;7.31;71.89;97814.28;5010464;27;108176;-75
2024/04/02 03:10:18;;;;;;;1.95;0.60;;;;;;;7.25;71.81;97817.59;5025800;27;103622;-72
2024/04/02 03:12:44;;;;;;;3.10;1.00;;;;;;;7.24;72.24;97827.28;5008561;27;103211;-75
2024/04/02 03:15:10;;;;;;;1.70;0.52;;;;;;;7.26;71.69;97830.59;5025600;27;103634;-73
2024/04/02 03:17:36;;;;;;;3.35;0.60;;;;;;;7.25;71.62;97838.66;5007676;27;103833;-74
2024/04/02 03:20:02;;;;;;;0.93;0.60;;;;;;;7.26;72.03;97832.41;5016033;27;103057;-77
2024/04/02 03:22:29;;;;;;;4.93;0.70;;;;;;;7.13;72.45;97835.56;5021445;27;103141;-77
2024/04/02 03:24:57;;;;;;;0.32;0.30;;;;;;;7.13;72.32;97839.00;5017405;27;104233;-77
2024/04/02 03:27:23;;;;;;;0.40;0.40;;;;;;;7.21;72.31;97842.63;5005888;27;103142;-75
2024/04/02 03:29:48;;;;;;;0.93;0.60;;;;;;;7.18;72.41;97848.19;5025996;27;103149;-76
2024/04/02 03:32:15;;;;;;;1.35;0.50;;;;;;;7.01;73.02;97840.34;5005222;27;103620;-73
2024/04/02 03:34:43;;;;;;;3.65;0.52;;;;;;;7.09;72.47;97847.41;5020859;27;103709;-73
2024/04/02 03:37:08;;;;;;;3.00;0.60;;;;;;;6.96;72.56;97851.34;5021532;27;103414;-74
2024/04/02 03:39:37;;;;;;;1.02;0.50;;;;;;;6.99;73.42;97844.13;5018795;27;103349;-76
2024/04/02 03:42:02;;;;;;;1.40;0.40;;;;;;;6.79;74.25;97849.72;5005280;27;103246;-75
2024/04/02 03:44:28;;;;;;;0.60;0.40;;;;;;;6.94;73.57;97847.25;5022407;27;103078;-80
2024/04/02 03:46:56;;;;;;;1.02;0.60;;;;;;;6.90;73.25;97845.94;5007633;27;103423;-75
2024/04/02 03:49:24;;;;;;;0.88;0.50;;;;;;;6.94;72.96;97836.72;5019889;27;103571;-77
2024/04/02 03:51:50;;;;;;;2.30;0.50;;;;;;;6.92;73.33;97843.97;5019878;27;103726;-72
2024/04/02 03:54:16;;;;;;;1.30;0.45;;;;;;;7.00;72.95;97858.94;5020858;27;103390;-73
2024/04/02 03:56:42;;;;;;;1.60;0.68;;;;;;;6.91;73.45;97858.13;5000494;27;107166;-73
2024/04/02 03:59:10;;;;;;;1.08;0.60;;;;;;;6.96;73.22;97842.66;5020501;27;103077;-82
2024/04/02 04:01:36;;;;;;;0.68;0.50;;;;;;;6.94;72.66;97865.66;5008876;27;102884;-79
2024/04/02 04:04:01;;;;;;;0.40;0.40;;;;;;;6.84;73.32;97859.75;4999478;27;103414;-78
2024/04/02 04:06:27;;;;;;;2.05;0.50;;;;;;;6.88;73.35;97863.72;5020392;27;103916;-78
2024/04/02 04:08:53;;;;;;;0.30;0.30;;;;;;;6.79;73.40;97866.34;5005197;27;105850;-77
2024/04/02 04:11:23;;;;;;;3.42;0.60;;;;;;;6.87;73.24;97862.06;5026909;27;102950;-80
2024/04/02 04:13:52;;;;;;;1.70;0.90;;;;;;;6.78;73.08;97861.25;5023837;27;103004;-78
2024/04/02 04:16:17;;;;;;;1.65;0.70;;;;;;;6.76;73.45;97866.66;5009447;27;105666;-77
2024/04/02 04:18:43;;;;;;;1.35;0.60;;;;;;;6.66;73.73;97862.56;5030179;27;103967;-78
2024/04/02 04:21:11;;;;;;;1.80;0.50;;;;;;;6.54;74.49;97868.13;5026669;27;103926;-78
2024/04/02 04:23:37;;;;;;;2.25;0.60;;;;;;;6.66;73.90;97863.38;5029395;27;103365;-78
2024/04/02 04:26:06;;;;;;;2.08;0.70;;;;;;;6.61;74.12;97873.56;5011866;27;105124;-79
2024/04/02 04:28:31;;;;;;;2.03;0.70;;;;;;;6.60;74.12;97867.50;5008987;27;102886;-78
2024/04/02 04:30:59;;;;;;;1.42;0.70;;;;;;;6.64;73.59;97867.97;5003008;27;102847;-77
2024/04/02 04:33:26;;;;;;;1.65;0.73;;;;;;;6.66;73.94;97875.72;5023369;27;102999;-75
2024/04/02 04:35:53;;;;;;;0.88;0.52;;;;;;;6.63;73.85;97882.94;5023927;27;103742;-79
2024/04/02 04:38:20;;;;;;;1.23;0.55;;;;;;;6.71;73.41;97882.13;5005244;27;103598;-76
2024/04/02 04:40:46;;;;;;;5.50;0.60;;;;;;;6.66;73.36;97881.78;5011083;27;103528;-78
2024/04/02 04:43:16;;;;;;;1.65;0.70;;;;;;;6.72;73.12;97888.22;5011759;27;103310;-78
2024/04/02 04:45:56;;;;;;;1.38;0.60;;;;;;;6.66;74.16;97905.47;5028816;27;106613;-78
2024/04/02 04:48:24;;;;;;;0.90;0.45;;;;;;;6.72;73.59;97891.69;5006257;27;105703;-77
2024/04/02 04:50:59;;;;;;;0.95;0.47;;;;;;;6.80;72.81;97902.19;5024810;27;103266;-77
2024/04/02 04:53:25;;;;;;;1.63;0.50;;;;;;;6.85;72.95;97900.88;5003212;27;102939;-77
2024/04/02 04:56:06;;;;;;;0.50;0.40;;;;;;;6.73;73.34;97906.47;5027599;27;105373;-76
2024/04/02 04:58:33;;;;;;;1.52;0.52;;;;;;;6.85;72.79;97906.16;5023315;27;105863;-76
2024/04/02 05:01:03;;;;;;;1.30;0.50;;;;;;;6.75;73.51;97909.75;5008080;27;102764;-79
2024/04/02 05:03:29;;;;;;;0.90;0.50;;;;;;;6.72;72.99;97918.00;5026581;27;102899;-77
2024/04/02 05:06:16;;;;;;;2.30;0.60;;;;;;;6.70;73.42;97921.78;5007440;27;103705;-77
2024/04/02 05:08:41;;;;;;;0.73;0.50;;;;;;;6.73;73.02;97919.63;5006765;27;106991;-79
2024/04/02 05:11:07;;;;;;;0.70;0.38;;;;;;;6.77;72.28;97926.22;5022464;27;103556;-77
2024/04/02 05:13:33;;;;;;;1.13;0.60;;;;;;;6.74;72.92;97934.44;5024685;27;102607;-78
2024/04/02 05:15:59;;;;;;;0.75;0.38;;;;;;;6.79;72.50;97944.47;5025029;27;102908;-76
2024/04/02 05:18:25;;;;;;;1.10;0.50;;;;;;;6.84;72.81;97947.44;5011612;27;104074;-76
2024/04/02 05:20:50;;;;;;;1.40;0.50;;;;;;;6.91;72.40;97942.34;5016271;27;102964;-80
2024/04/02 05:23:17;;;;;;;1.02;0.45;;;;;;;6.94;72.14;97950.75;5033638;27;103111;-76
2024/04/02 05:25:45;;;;;;;0.60;0.30;;;;;;;7.09;71.32;97953.56;5028226;27;103832;-75
2024/04/02 05:28:11;;;;;;;1.13;0.50;;;;;;;7.13;71.19;97954.06;4997895;27;105598;-75
2024/04/02 05:30:41;;;;;;;0.80;0.52;;;;;;;7.05;71.43;97948.75;5024280;27;102826;-73
2024/04/02 05:33:07;;;;;;;0.95;0.60;;;;;;;7.09;71.76;97950.09;5011477;27;103019;-73
2024/04/02 05:35:33;;;;;;;0.50;0.40;;;;;;;7.11;71.43;97954.22;5030953;27;103911;-72
2024/04/02 05:37:59;;;;;;;2.42;0.50;;;;;;;7.11;71.49;97958.66;5032358;27;103192;-73
2024/04/02 05:40:27;;;;;;;2.55;0.40;;;;;;;7.16;71.68;97960.81;5027074;27;103170;-75
2024/04/02 05:42:57;;;;;;;3.45;0.57;;;;;;;7.32;71.06;97963.41;5011224;27;104376;-75
2024/04/02 05:45:23;;;;;;;2.70;0.60;;;;;;;7.37;70.90;97969.00;5008332;27;103121;-73
2024/04/02 05:47:52;;;;;;;2.65;1.05;;;;;;;7.45;70.96;97963.75;5009011;27;103565;-74
2024/04/02 05:50:20;;;;;;;5.30;0.80;;;;;;;7.46;70.62;97968.03;5022886;27;103866;-73
2024/04/02 05:52:46;;;;;;;0.85;0.40;;;;;;;7.45;70.37;97966.41;5024809;27;102677;-77
2024/04/02 05:55:16;;;;;;;0.88;0.40;;;;;;;7.50;69.80;97970.34;5007633;27;103427;-77
2024/04/02 05:57:42;;;;;;;3.30;0.85;;;;;;;7.55;69.80;97971.47;5010249;27;104154;-72
2024/04/02 06:00:10;;;;;;;0.70;0.40;;;;;;;7.61;69.36;97975.25;5013107;27;102913;-73
2024/04/02 06:02:39;;;;;;;1.92;0.40;;;;;;;7.63;69.96;97976.72;5015120;27;102709;-73
2024/04/02 06:05:07;;;;;;;2.08;0.47;;;;;;;7.79;69.10;97977.69;5023169;27;105082;-77
2024/04/02 06:07:33;;;;;;;1.73;0.70;;;;;;;7.93;68.76;97994.66;5023959;27;103338;-73
2024/04/02 06:09:59;;;;;;;1.48;0.70;;;;;;;8.18;68.49;97991.94;5017368;27;102984;-74
2024/04/02 06:12:25;;;;;;;1.60;0.50;;;;;;;8.42;68.35;97988.38;5019425;27;102613;-76
2024/04/02 06:14:51;;;;;;;4.25;0.52;;;;;;;8.62;67.69;97999.38;5005462;27;105536;-82
2024/04/02 06:17:16;;;;;;;1.52;0.50;;;;;;;8.68;67.19;97993.41;5006667;27;103146;-75
2024/04/02 06:19:42;;;;;;;0.82;0.30;;;;;;;8.71;66.80;98002.78;5022564;27;102749;-73
2024/04/02 06:22:08;;;;;;;1.38;0.30;;;;;;;8.76;66.02;98008.38;4994457;28;103304;-77
2024/04/02 06:24:36;;;;;;;1.48;0.38;;;;;;;8.90;65.30;98014.75;5021758;27;103797;-75
2024/04/02 06:27:02;;;;;;;1.83;0.43;;;;;;;8.84;65.44;98024.16;5023380;27;103444;-76
2024/04/02 06:29:29;;;;;;;1.30;0.40;;;;;;;8.66;66.05;98028.88;5022942;27;103502;-76
2024/04/02 06:31:56;;;;;;;1.17;0.40;;;;;;;8.68;66.61;98035.63;5028980;27;103636;-75
2024/04/02 06:34:24;;;;;;;1.05;0.52;;;;;;;8.57;67.72;98033.41;5028633;27;102754;-76
2024/04/02 06:36:52;;;;;;;2.55;0.50;;;;;;;8.48;68.95;98044.97;5023483;27;102865;-76
2024/04/02 06:39:17;;;;;;;1.60;0.43;;;;;;;8.30;70.20;98038.06;5025147;27;103060;-76
2024/04/02 06:41:45;;;;;;;2.38;0.50;;;;;;;8.31;70.53;98042.34;5028960;27;102685;-76
2024/04/02 06:44:11;;;;;;;0.52;0.35;;;;;;;8.41;70.67;98050.91;5011978;27;103398;-75
2024/04/02 06:46:39;;;;;;;1.38;0.32;;;;;;;8.57;69.73;98042.13;5028212;27;104134;-72
2024/04/02 06:49:05;;;;;;;1.80;0.47;;;;;;;8.66;69.70;98045.56;5027048;27;104101;-75
2024/04/02 06:51:31;;;;;;;0.45;0.20;;;;;;;8.60;69.53;98043.59;5012031;27;102795;-77
2024/04/02 06:53:56;;;;;;;0.70;0.40;;;;;;;8.66;69.60;98042.06;5027215;27;103386;-76
2024/04/02 06:56:25;;;;;;;1.08;0.50;;;;;;;8.65;69.20;98045.72;4987641;27;105392;-78
2024/04/02 06:58:54;;;;;;;0.50;0.30;;;;;;;8.56;68.88;98042.28;5013427;27;103222;-78
2024/04/02 07:01:21;;;;;;;1.25;0.38;;;;;;;8.61;69.13;98046.06;5031460;27;103118;-75
2024/04/02 07:03:46;;;;;;;1.60;0.40;;;;;;;8.82;69.01;98046.44;5016040;27;103451;-76
2024/04/02 07:06:12;;;;;;;0.80;0.38;;;;;;;8.72;69.04;98047.50;5022909;27;104222;-75
2024/04/02 07:08:41;;;;;;;0.95;0.30;;;;;;;8.72;68.05;98044.84;5027567;27;103086;-74
2024/04/02 07:11:10;;;;;;;2.50;0.30;;;;;;;8.59;67.68;98049.88;5005237;27;102849;-74
2024/04/02 07:13:36;;;;;;;4.55;0.50;;;;;;;8.74;67.91;98049.97;4989994;27;103651;-74
2024/04/02 07:16:01;;;;;;;1.30;0.30;;;;;;;8.88;67.07;98045.78;5037790;27;105577;-74
2024/04/02 07:18:35;;;;;;;1.05;0.47;;;;;;;9.06;66.79;98056.88;5003168;27;103569;-73
2024/04/02 07:21:01;;;;;;;1.42;0.40;;;;;;;9.19;66.11;98047.59;5005683;27;102787;-74
2024/04/02 07:23:27;;;;;;;1.00;0.50;;;;;;;9.34;65.94;98050.28;5006888;27;104266;-75
2024/04/02 07:25:54;;;;;;;1.30;0.43;;;;;;;9.60;65.28;98053.41;5025667;27;103585;-74
2024/04/02 07:28:20;;;;;;;3.63;0.45;;;;;;;9.95;64.68;98052.91;5006404;27;103652;-74
2024/04/02 07:30:46;;;;;;;4.70;0.60;;;;;;;9.85;63.67;98055.00;5024140;27;102835;-75
2024/04/02 07:33:13;;;;;;;2.38;0.57;;;;;;;9.91;63.50;98054.28;4993417;27;105612;-75
2024/04/02 07:35:45;;;;;;;2.85;0.60;;;;;;;10.06;62.92;98055.13;5019509;27;107489;-73
2024/04/02 07:38:12;;;;;;;4.00;0.80;;;;;;;10.15;63.53;98062.97;5021270;27;103224;-73
2024/04/02 07:40:37;;;;;;;3.08;0.63;;;;;;;10.53;62.75;98061.13;5025078;27;103477;-69
2024/04/02 07:43:06;;;;;;;2.55;0.75;;;;;;;10.91;60.33;98062.78;5022601;27;103196;-71
2024/04/02 07:45:34;;;;;;;3.92;0.80;;;;;;;10.87;59.64;98072.13;5023920;27;102722;-74
2024/04/02 07:48:00;;;;;;;2.88;0.50;;;;;;;10.85;60.47;98080.25;5023940;27;103401;-76
2024/04/02 08:47:34;;;;;;;4.82;0.88;;;;;;;12.22;54.47;98149.38;5083984;27;105258;-67
2024/04/02 08:50:02;;;;;;;3.60;0.80;;;;;;;12.47;53.73;98157.78;5002504;27;102802;-67
2024/04/02 08:52:36;;;;;;;5.13;0.68;;;;;;;11.86;53.80;98163.56;5044837;27;103810;-67
2024/04/02 08:55:02;;;;;;;3.33;0.98;;;;;;;12.37;53.24;98158.09;5050990;27;103203;-68
2024/04/02 08:57:29;;;;;;;3.53;0.98;;;;;;;11.94;54.84;98163.41;5048581;27;102893;-70
2024/04/02 08:59:57;;;;;;;5.70;0.73;;;;;;;12.06;54.98;98172.53;5031775;27;102825;-70
2024/04/02 09:02:23;;;;;;;3.05;0.75;;;;;;;11.79;55.17;98176.75;5029243;27;103399;-68
2024/04/02 09:04:52;;;;;;;4.65;0.73;;;;;;;11.75;56.51;98180.78;5047182;27;103782;-68
2024/04/02 09:07:20;;;;;;;2.83;0.95;;;;;;;11.45;57.24;98178.22;5025779;27;104416;-68
2024/04/02 09:09:48;;;;;;;2.38;0.80;;;;;;;12.49;57.25;98181.47;5046283;27;102854;-68
2024/04/02 09:12:14;;;;;;;4.15;0.77;;;;;;;13.01;55.25;98180.16;5047857;27;103539;-68
2024/04/02 09:14:40;;;;;;;4.32;0.88;;;;;;;12.26;55.06;98187.81;5003470;27;103455;-68
2024/04/02 09:17:10;;;;;;;3.28;0.60;;;;;;;13.02;52.94;98173.84;4984809;28;103377;-68
2024/04/02 09:19:38;;;;;;;3.95;0.75;;;;;;;13.73;52.34;98171.88;4990647;28;102929;-70
2024/04/02 09:22:04;;;;;;;5.47;1.08;;;;;;;14.04;50.86;98179.31;4978475;28;103238;-68
2024/04/02 09:24:34;;;;;;;4.10;0.88;;;;;;;14.27;48.83;98167.41;4989053;28;103508;-68
2024/04/02 09:26:59;;;;;;;6.72;1.38;;;;;;;14.06;49.23;98171.91;4970662;28;103058;-71
2024/04/02 09:29:27;;;;;;;5.45;1.17;;;;;;;13.79;47.97;98170.25;4991028;27;102921;-68
2024/04/02 09:31:53;;;;;;;2.92;0.90;;;;;;;14.24;47.93;98158.00;4977340;27;105334;-68
2024/04/02 09:34:21;;;;;;;3.53;0.82;;;;;;;13.68;48.00;98164.47;5006066;27;103222;-68
2024/04/02 09:36:48;;;;;;;9.43;1.27;;;;;;;13.77;49.86;98173.91;4999851;27;102827;-71
2024/04/02 09:39:15;;;;;;;5.93;1.23;;;;;;;13.53;49.06;98169.97;5006646;27;102792;-68
2024/04/02 09:41:45;;;;;;;5.57;1.15;;;;;;;13.30;49.93;98164.94;5005075;27;103006;-68
2024/04/02 09:44:14;;;;;;;5.18;1.00;;;;;;;12.99;49.48;98168.88;4993375;27;103324;-71
2024/04/02 09:46:41;;;;;;;4.05;0.98;;;;;;;13.20;48.77;98167.16;4998156;28;102727;-71
2024/04/02 09:49:08;;;;;;;5.45;0.88;;;;;;;13.00;49.50;98167.88;4970094;28;103948;-71
2024/04/02 09:51:34;;;;;;;5.25;0.90;;;;;;;12.89;49.14;98169.25;4974445;28;105428;-70
2024/04/02 09:54:02;;;;;;;6.15;1.05;;;;;;;13.17;49.00;98167.56;4973474;28;105238;-70
2024/04/02 09:56:33;;;;;;;6.13;1.30;;;;;;;13.62;48.33;98164.47;4976492;28;103423;-71
2024/04/02 09:59:04;;;;;;;4.43;1.08;;;;;;;12.93;49.31;98180.34;4990386;28;102863;-68
2024/04/02 10:01:36;;;;;;;5.93;1.10;;;;;;;12.99;49.54;98176.88;4994957;28;103569;-68
2024/04/02 10:04:06;;;;;;;5.38;1.20;;;;;;;13.25;48.51;98178.03;4990190;28;103508;-68
2024/04/02 10:06:34;;;;;;;6.25;1.35;;;;;;;13.16;49.09;98176.56;4985486;28;103323;-71
2024/04/02 10:09:03;;;;;;;6.63;1.17;;;;;;;12.79;49.18;98186.59;4996607;28;102898;-70
2024/04/02 10:11:40;;;;;;;9.52;1.63;;;;;;;12.62;49.94;98186.88;4998115;28;103987;-69
2024/04/02 10:14:16;;;;;;;5.15;1.27;;;;;;;12.84;49.80;98174.34;4993605;28;103230;-70
2024/04/02 10:16:49;;;;;;;8.38;1.27;;;;;;;12.55;49.51;98183.34;4967663;28;103229;-70
2024/04/02 10:19:19;;;;;;;7.18;1.30;;;;;;;12.70;48.68;98173.44;4991114;27;103099;-71
2024/04/02 10:21:47;;;;;;;4.15;1.08;;;;;;;12.92;48.65;98176.84;4988337;28;105216;-71
2024/04/02 10:24:18;;;;;;;5.30;1.10;;;;;;;12.82;47.88;98178.22;4966857;28;103350;-70
2024/04/02 10:26:44;;;;;;;4.70;1.20;;;;;;;12.62;47.46;98178.91;4946577;27;103149;-71
2024/04/02 10:29:09;;;;;;;6.78;1.25;;;;;;;13.35;47.69;98174.97;4961289;28;102815;-71
2024/04/02 10:31:35;;;;;;;5.47;1.10;;;;;;;13.71;46.02;98174.72;4967198;28;105251;-71
2024/04/02 10:34:01;;;;;;;3.08;0.90;;;;;;;13.43;46.39;98167.69;4994208;27;103383;-70
2024/04/02 10:36:27;;;;;;;7.05;1.00;;;;;;;13.31;46.34;98169.25;4967553;28;102857;-71
2024/04/02 10:38:53;;;;;;;2.65;0.88;;;;;;;13.02;46.90;98176.50;4933626;27;102885;-71
2024/04/02 10:41:18;;;;;;;4.65;0.85;;;;;;;12.57;47.60;98170.69;5009281;27;103480;-71
2024/04/02 10:43:44;;;;;;;3.92;0.88;;;;;;;12.74;46.86;98169.38;4989305;27;103233;-70
2024/04/02 10:46:10;;;;;;;5.50;1.17;;;;;;;12.74;46.49;98168.56;5000063;27;102801;-70
2024/04/02 10:48:39;;;;;;;4.57;0.85;;;;;;;13.47;45.19;98167.28;5002099;27;103070;-68
2024/04/02 10:51:06;;;;;;;5.88;1.55;;;;;;;13.27;45.90;98162.69;4999266;27;103351;-70
2024/04/02 10:53:34;;;;;;;5.75;1.00;;;;;;;13.72;43.93;98160.38;5018273;27;103403;-68
2024/04/02 10:56:02;;;;;;;5.18;0.90;;;;;;;14.09;44.39;98160.84;5018822;27;102785;-71
2024/04/02 10:58:28;;;;;;;5.53;1.17;;;;;;;14.14;42.98;98151.44;4983743;27;103365;-69
2024/04/02 11:00:54;;;;;;;7.32;1.17;;;;;;;14.13;44.11;98153.28;5004237;27;103330;-68
2024/04/02 11:03:20;;;;;;;3.75;0.90;;;;;;;13.80;43.54;98155.91;4998594;27;103152;-70
2024/04/02 11:05:46;;;;;;;6.28;1.25;;;;;;;13.50;44.83;98156.25;5015686;27;104233;-71
2024/04/02 11:08:14;;;;;;;5.20;1.08;;;;;;;13.29;46.15;98160.66;4994385;27;103107;-70
2024/04/02 11:10:49;;;;;;;6.93;1.00;;;;;;;13.11;46.06;98153.19;4979538;27;105384;-72
2024/04/02 11:13:27;;;;;;;2.38;0.90;;;;;;;13.03;45.66;98166.66;5015905;27;103546;-69
2024/04/02 11:15:54;;;;;;;1.98;0.63;;;;;;;13.59;45.15;98160.38;5018931;27;102740;-68
2024/04/02 11:18:26;;;;;;;2.55;0.90;;;;;;;13.95;45.98;98156.53;4994663;27;103288;-70
2024/04/02 11:20:57;;;;;;;3.72;0.80;;;;;;;14.34;46.03;98144.25;5007523;27;105390;-70
2024/04/02 11:26:30;;;;;;;2.17;0.70;;;;;;;14.30;44.47;98151.03;4995716;27;103090;-71
2024/04/02 11:29:08;;;;;;;2.92;0.77;;;;;;;14.47;44.84;98166.59;5014608;27;103874;-70
2024/04/02 11:31:35;;;;;;;3.72;0.90;;;;;;;13.51;46.80;98174.66;5000078;27;105386;-68
2024/04/02 11:34:05;;;;;;;5.28;1.05;;;;;;;13.87;46.94;98170.88;5017204;27;103200;-67
2024/04/02 11:36:31;;;;;;;3.50;0.70;;;;;;;14.54;45.59;98173.56;5014323;27;102947;-67
2024/04/02 11:38:57;;;;;;;2.83;0.77;;;;;;;14.47;44.40;98177.25;5012250;27;102775;-71
2024/04/02 11:41:24;;;;;;;2.72;0.50;;;;;;;14.64;43.30;98173.16;5003476;27;103220;-72
2024/04/02 11:43:49;;;;;;;3.08;0.70;;;;;;;14.77;43.95;98163.50;5014560;27;103156;-71
2024/04/02 11:46:15;;;;;;;2.95;0.60;;;;;;;15.33;43.32;98170.91;4999527;27;103113;-68
2024/04/02 11:48:41;;;;;;;3.80;0.57;;;;;;;14.81;42.66;98162.06;5009309;27;103144;-71
2024/04/02 11:51:07;;;;;;;2.70;0.80;;;;;;;14.49;42.98;98164.53;5012875;27;103537;-67
2024/04/02 11:53:33;;;;;;;3.58;1.00;;;;;;;15.15;42.31;98173.47;5012602;27;104452;-68
2024/04/02 11:55:58;;;;;;;5.80;0.75;;;;;;;14.93;42.86;98176.38;4999227;27;102910;-68
2024/04/02 12:01:10;;;;;;;;;;;;;;;15.17;43.30;98187.38;4989251;27;108077;-71
2024/04/02 12:03:35;;;;;;;6.30;1.10;;;;;;;14.87;42.71;98171.91;5015940;27;103188;-68
2024/04/02 12:06:01;;;;;;;2.33;0.68;;;;;;;14.33;45.44;98190.59;4998805;27;102757;-71
2024/04/02 12:08:27;;;;;;;3.13;1.00;;;;;;;14.51;49.07;98189.13;5010954;27;103170;-71
2024/04/02 12:10:52;;;;;;;6.20;0.63;;;;;;;15.12;49.66;98189.88;5015437;27;102742;-71
2024/04/02 12:13:18;;;;;;;2.67;0.68;;;;;;;15.29;50.10;98180.38;4999305;27;106167;-68
2024/04/02 12:15:44;;;;;;;2.83;0.88;;;;;;;15.71;48.27;98172.78;5013210;27;103025;-71
2024/04/02 12:18:10;;;;;;;2.75;0.63;;;;;;;16.00;47.24;98173.25;4995868;27;103208;-71
2024/04/02 12:20:35;;;;;;;5.70;1.17;;;;;;;16.42;45.76;98173.53;5003380;27;103336;-69
2024/04/02 12:23:05;;;;;;;1.58;0.60;;;;;;;16.52;41.11;98174.88;4980288;27;104471;-71
2024/04/02 12:25:31;;;;;;;1.38;0.75;;;;;;;15.97;41.90;98173.69;5013108;27;102856;-70
2024/04/02 12:27:57;;;;;;;2.03;0.60;;;;;;;16.69;42.13;98172.47;5003871;27;103880;-71
2024/04/02 12:30:22;;;;;;;1.45;0.68;;;;;;;16.92;40.54;98171.06;4979627;27;104598;-70
2024/04/02 12:32:55;;;;;;;2.83;0.75;;;;;;;16.23;39.18;98177.19;4967264;27;105249;-69
2024/04/02 12:35:32;;;;;;;4.57;0.60;;;;;;;14.89;42.01;98180.50;4984387;27;102944;-67